Time;durP1;ratioP1;P1;durP2;ratioP2;P2;SDS_P1;SDS_P2;PMS_P1;PMS_P2;Temp;Humidity;BMP_temperature;BMP_pressure;BME280_temperature;BME280_humidity;BME280_pressure;Samples;Min_cycle;Max_cycle;Signal;HPM_P1;HPM_P2
2021/05/17 00:01:33;;;;;;;1.53;0.87;;;11.40;91.00;;;;;;5046473;28;20437;-76
2021/05/17 00:04:03;;;;;;;2.60;0.87;;;11.40;90.90;;;;;;5039491;28;20481;-74
2021/05/17 00:06:29;;;;;;;1.80;1.00;;;11.40;90.80;;;;;;5041332;28;20424;-75
2021/05/17 00:08:55;;;;;;;1.20;0.90;;;11.50;90.50;;;;;;5040239;28;20566;-75
2021/05/17 00:11:21;;;;;;;4.57;1.37;;;11.50;90.20;;;;;;5041279;28;20911;-74
2021/05/17 00:13:46;;;;;;;3.13;1.03;;;11.40;90.00;;;;;;5045998;28;20470;-73
2021/05/17 00:16:12;;;;;;;1.83;0.83;;;11.40;90.10;;;;;;5045716;28;20447;-73
2021/05/17 00:18:39;;;;;;;1.30;1.00;;;11.40;90.10;;;;;;5027900;28;20649;-73
2021/05/17 00:21:06;;;;;;;2.03;0.87;;;11.40;90.00;;;;;;5025840;28;20424;-73
2021/05/17 00:23:32;;;;;;;1.57;1.00;;;11.40;90.10;;;;;;5027969;28;20427;-73
2021/05/17 00:25:58;;;;;;;2.87;0.90;;;11.30;90.10;;;;;;5039092;28;20527;-73
2021/05/17 00:28:24;;;;;;;2.80;1.00;;;11.30;90.30;;;;;;5047180;28;20459;-73
2021/05/17 00:30:50;;;;;;;2.63;0.80;;;11.30;90.30;;;;;;5048157;28;20261;-73
2021/05/17 00:33:16;;;;;;;2.00;0.90;;;11.20;90.50;;;;;;5040813;28;20463;-73
2021/05/17 00:35:42;;;;;;;2.80;1.17;;;11.20;90.70;;;;;;5053865;28;20439;-73
2021/05/17 00:38:08;;;;;;;1.70;1.00;;;11.10;90.80;;;;;;5047055;28;20428;-74
2021/05/17 00:40:34;;;;;;;1.53;1.00;;;11.10;90.90;;;;;;5035074;28;20443;-74
2021/05/17 00:43:05;;;;;;;2.10;1.03;;;11.10;91.00;;;;;;5041339;28;20953;-76
2021/05/17 00:45:31;;;;;;;3.40;0.90;;;11.10;91.10;;;;;;5056785;28;20284;-71
2021/05/17 00:47:57;;;;;;;2.00;1.23;;;11.10;91.30;;;;;;5064767;28;20480;-75
2021/05/17 00:50:26;;;;;;;4.70;0.93;;;11.10;91.50;;;;;;5063441;28;20238;-72
2021/05/17 00:52:53;;;;;;;2.07;0.90;;;11.00;91.40;;;;;;5054613;28;20459;-73
2021/05/17 00:55:20;;;;;;;1.83;1.00;;;11.10;91.10;;;;;;5040899;28;20737;-72
2021/05/17 00:57:46;;;;;;;1.20;0.80;;;11.10;90.80;;;;;;5046174;28;20428;-72
2021/05/17 01:00:16;;;;;;;1.30;1.10;;;11.10;90.80;;;;;;5033330;28;20415;-73
2021/05/17 01:02:42;;;;;;;1.20;0.80;;;11.10;90.70;;;;;;5029728;28;20423;-72
2021/05/17 01:05:10;;;;;;;3.20;0.90;;;11.10;90.50;;;;;;5037176;28;20997;-76
2021/05/17 01:07:37;;;;;;;1.80;1.00;;;11.10;90.70;;;;;;5041558;28;20887;-72
2021/05/17 01:10:04;;;;;;;6.20;1.30;;;11.10;90.70;;;;;;5037554;28;20443;-75
2021/05/17 01:12:33;;;;;;;1.40;0.90;;;11.10;90.70;;;;;;5033163;28;21041;-71
2021/05/17 01:14:59;;;;;;;2.20;1.00;;;11.00;90.80;;;;;;5032412;28;20526;-73
2021/05/17 01:17:26;;;;;;;1.50;1.10;;;11.10;90.80;;;;;;5032578;28;20439;-72
2021/05/17 01:20:09;;;;;;;3.63;0.83;;;11.10;90.80;;;;;;5035744;28;20523;-72
2021/05/17 01:22:49;;;;;;;1.67;1.00;;;11.00;90.80;;;;;;5041234;28;20518;-75
2021/05/17 01:25:16;;;;;;;4.90;0.90;;;11.00;91.10;;;;;;5026665;28;20447;-72
2021/05/17 01:27:43;;;;;;;1.30;0.73;;;11.00;91.00;;;;;;5039523;28;20431;-73
2021/05/17 01:30:10;;;;;;;2.00;1.10;;;10.90;91.30;;;;;;5043813;28;20516;-74
2021/05/17 01:32:36;;;;;;;3.03;1.13;;;10.90;91.50;;;;;;5045947;28;20933;-74
2021/05/17 01:35:02;;;;;;;2.33;1.10;;;10.80;91.60;;;;;;5032804;28;21038;-72
2021/05/17 01:37:33;;;;;;;1.67;1.00;;;10.80;91.80;;;;;;5045089;28;20488;-72
2021/05/17 01:40:00;;;;;;;3.03;1.20;;;10.80;92.00;;;;;;5032915;28;20474;-72
2021/05/17 01:42:29;;;;;;;2.63;1.00;;;10.70;92.00;;;;;;5033812;28;20481;-72
2021/05/17 01:44:57;;;;;;;1.50;0.80;;;10.80;92.00;;;;;;5044693;28;20530;-72
2021/05/17 01:47:25;;;;;;;2.03;1.10;;;10.70;91.80;;;;;;5033063;28;20976;-74
2021/05/17 01:49:51;;;;;;;1.90;0.90;;;10.80;91.50;;;;;;5040990;28;20427;-74
2021/05/17 01:52:19;;;;;;;1.43;0.80;;;10.80;91.50;;;;;;5050110;28;20828;-73
2021/05/17 01:54:48;;;;;;;1.30;0.90;;;10.80;91.50;;;;;;5040934;28;20543;-73
2021/05/17 01:57:14;;;;;;;1.10;0.80;;;10.80;91.30;;;;;;5032644;28;20583;-76
2021/05/17 01:59:40;;;;;;;2.77;0.87;;;10.80;91.60;;;;;;5011667;28;20430;-75
2021/05/17 02:02:06;;;;;;;4.87;1.00;;;10.80;91.60;;;;;;5016292;28;20418;-76
2021/05/17 02:04:32;;;;;;;2.80;0.90;;;10.80;91.70;;;;;;5039497;28;20955;-72
2021/05/17 02:06:57;;;;;;;1.50;0.90;;;10.80;91.70;;;;;;5048292;28;20760;-73
2021/05/17 02:09:26;;;;;;;1.73;0.80;;;10.80;91.60;;;;;;5032435;28;20647;-72
2021/05/17 02:11:53;;;;;;;2.07;0.80;;;10.80;91.50;;;;;;5034157;28;20223;-72
2021/05/17 02:14:22;;;;;;;1.53;0.90;;;10.80;91.20;;;;;;5042377;28;20463;-72
2021/05/17 02:16:48;;;;;;;3.33;0.90;;;10.80;91.10;;;;;;5031150;28;20426;-72
2021/05/17 02:19:14;;;;;;;4.20;0.73;;;10.80;91.10;;;;;;5029801;28;20476;-73
2021/05/17 02:21:40;;;;;;;1.10;0.70;;;10.80;90.80;;;;;;5032865;28;20479;-73
2021/05/17 02:24:08;;;;;;;1.40;0.83;;;10.80;90.70;;;;;;5032856;28;21010;-73
2021/05/17 02:26:34;;;;;;;2.87;0.80;;;10.80;90.60;;;;;;5045754;28;20517;-72
2021/05/17 02:29:02;;;;;;;1.90;1.00;;;10.80;90.50;;;;;;5049530;28;20430;-72
2021/05/17 02:31:28;;;;;;;1.77;0.80;;;10.80;90.40;;;;;;5050881;28;20200;-72
2021/05/17 02:33:53;;;;;;;3.50;2.13;;;10.90;90.30;;;;;;5040001;28;20475;-73
2021/05/17 02:36:20;;;;;;;1.60;1.00;;;10.80;90.30;;;;;;5030740;28;20419;-72
2021/05/17 02:38:45;;;;;;;1.60;0.80;;;10.80;90.30;;;;;;5030791;28;20431;-74
2021/05/17 02:41:14;;;;;;;2.83;1.10;;;10.80;90.30;;;;;;5030959;28;20915;-74
2021/05/17 02:43:41;;;;;;;3.87;1.00;;;10.80;90.30;;;;;;5029470;28;20776;-73
2021/05/17 02:46:08;;;;;;;3.33;0.90;;;10.80;90.10;;;;;;5044133;28;20436;-74
2021/05/17 02:48:40;;;;;;;1.63;0.97;;;10.80;90.30;;;;;;5031070;28;20420;-75
2021/05/17 02:51:09;;;;;;;1.37;0.80;;;10.80;90.30;;;;;;5036608;28;20422;-74
2021/05/17 02:53:36;;;;;;;6.53;1.00;;;10.70;90.30;;;;;;5049396;28;20466;-72
2021/05/17 02:56:24;;;;;;;2.90;1.17;;;10.70;90.20;;;;;;5037037;28;20419;-75
2021/05/17 02:58:51;;;;;;;1.73;0.70;;;10.70;90.20;;;;;;5047739;28;20482;-75
2021/05/17 03:01:28;;;;;;;1.40;0.87;;;10.70;90.20;;;;;;5040241;28;20454;-73
2021/05/17 03:03:57;;;;;;;1.60;0.77;;;10.80;89.70;;;;;;5050474;28;20446;-76
2021/05/17 03:06:37;;;;;;;1.37;0.80;;;10.80;89.60;;;;;;5050360;28;20510;-73
2021/05/17 03:09:12;;;;;;;1.83;0.87;;;10.90;89.20;;;;;;5023381;28;20444;-74
2021/05/17 03:11:41;;;;;;;1.73;0.80;;;10.90;89.00;;;;;;5037472;28;20930;-76
2021/05/17 03:14:13;;;;;;;2.87;0.80;;;10.90;88.70;;;;;;5042063;28;20904;-74
2021/05/17 03:16:41;;;;;;;1.70;1.07;;;10.80;88.90;;;;;;5031910;28;20502;-73
2021/05/17 03:19:08;;;;;;;1.53;0.80;;;10.80;89.00;;;;;;5049723;28;20411;-72
2021/05/17 03:21:34;;;;;;;0.80;0.60;;;10.80;89.00;;;;;;5054826;28;20514;-72
2021/05/17 03:24:00;;;;;;;1.43;0.70;;;10.80;89.50;;;;;;5053424;28;21118;-73
2021/05/17 03:26:27;;;;;;;4.70;0.83;;;10.70;89.70;;;;;;5053301;28;20502;-75
2021/05/17 03:28:53;;;;;;;1.60;1.00;;;10.70;90.10;;;;;;5044701;28;20424;-73
2021/05/17 03:31:19;;;;;;;2.93;0.90;;;10.70;90.30;;;;;;5031210;28;20494;-74
2021/05/17 03:33:45;;;;;;;1.40;0.80;;;10.60;90.40;;;;;;5061788;28;20456;-72
2021/05/17 03:36:11;;;;;;;4.30;0.80;;;10.60;90.90;;;;;;5054714;28;20933;-72
2021/05/17 03:38:38;;;;;;;2.57;0.97;;;10.60;91.00;;;;;;5053955;28;20217;-75
2021/05/17 03:41:05;;;;;;;1.20;0.80;;;10.50;91.00;;;;;;5045831;28;20604;-75
2021/05/17 03:43:30;;;;;;;2.60;1.00;;;10.50;91.10;;;;;;5044621;28;20462;-72
2021/05/17 03:45:56;;;;;;;2.00;0.83;;;10.50;91.30;;;;;;5052015;28;20451;-72
2021/05/17 03:48:22;;;;;;;2.00;1.00;;;10.50;91.30;;;;;;5044856;28;20189;-72
2021/05/17 03:50:47;;;;;;;1.40;0.90;;;10.50;91.30;;;;;;5037663;28;20216;-73
2021/05/17 03:53:13;;;;;;;1.00;0.70;;;10.40;91.30;;;;;;5037319;28;20271;-72
2021/05/17 03:55:39;;;;;;;1.73;0.90;;;10.40;91.40;;;;;;5037165;28;20204;-73
2021/05/17 03:58:04;;;;;;;1.57;0.80;;;10.40;91.40;;;;;;5054141;28;20185;-75
2021/05/17 04:00:31;;;;;;;2.80;1.00;;;10.40;91.30;;;;;;5040938;28;20650;-74
2021/05/17 04:03:01;;;;;;;4.20;0.90;;;10.40;91.20;;;;;;5043998;28;20252;-73
2021/05/17 04:13:20;;;;;;;2.27;1.20;;;10.50;91.20;;;;;;5033998;28;20509;-73
2021/05/17 04:15:47;;;;;;;1.37;0.90;;;10.50;91.00;;;;;;5041913;28;20452;-74
2021/05/17 04:18:13;;;;;;;2.17;1.00;;;10.50;91.10;;;;;;5035781;28;20910;-74
2021/05/17 04:20:39;;;;;;;1.77;1.00;;;10.50;91.20;;;;;;5031537;28;20420;-73
2021/05/17 04:23:06;;;;;;;2.17;0.80;;;10.60;91.00;;;;;;5046450;28;20782;-74
2021/05/17 04:25:32;;;;;;;2.40;1.00;;;10.50;91.00;;;;;;5043599;28;20943;-74
2021/05/17 04:27:57;;;;;;;2.60;0.80;;;10.60;91.10;;;;;;5049022;28;20514;-73
2021/05/17 04:30:23;;;;;;;2.10;0.80;;;10.60;91.00;;;;;;5034824;28;20243;-75
2021/05/17 04:32:49;;;;;;;1.60;1.00;;;10.60;90.90;;;;;;5045595;28;20477;-76
2021/05/17 04:35:15;;;;;;;1.40;0.93;;;10.60;90.90;;;;;;5039906;28;20215;-73
2021/05/17 04:37:41;;;;;;;1.23;0.70;;;10.60;90.80;;;;;;5053615;28;20937;-72
2021/05/17 04:40:07;;;;;;;1.60;0.93;;;10.60;90.90;;;;;;5044559;28;20181;-73
2021/05/17 04:42:34;;;;;;;1.53;0.90;;;10.70;90.60;;;;;;5035531;28;20173;-72
2021/05/17 04:45:00;;;;;;;1.00;0.70;;;10.70;90.30;;;;;;5053010;28;20781;-73
2021/05/17 04:47:25;;;;;;;3.17;0.80;;;10.80;90.00;;;;;;5053071;28;20422;-73
2021/05/17 04:49:52;;;;;;;3.40;1.07;;;10.80;89.90;;;;;;5053074;28;20168;-73
2021/05/17 04:52:17;;;;;;;1.63;0.90;;;10.80;89.30;;;;;;5035895;28;20272;-73
2021/05/17 04:54:44;;;;;;;1.77;1.10;;;10.80;89.50;;;;;;5042152;28;20609;-73
2021/05/17 04:57:10;;;;;;;1.10;0.90;;;10.80;89.60;;;;;;5037223;28;20483;-73
2021/05/17 04:59:37;;;;;;;1.50;0.77;;;10.70;89.50;;;;;;5032890;28;21132;-73
2021/05/17 05:02:06;;;;;;;1.13;0.70;;;10.70;89.70;;;;;;5034990;28;20454;-74
2021/05/17 05:04:32;;;;;;;4.63;0.80;;;10.70;89.60;;;;;;5041425;28;20543;-72
2021/05/17 05:06:57;;;;;;;1.20;0.70;;;10.70;89.50;;;;;;5036611;28;20562;-74
2021/05/17 05:09:24;;;;;;;1.70;0.83;;;10.70;89.20;;;;;;5042784;28;20651;-74
2021/05/17 05:11:50;;;;;;;1.37;0.70;;;10.70;88.40;;;;;;5048480;28;20189;-73
2021/05/17 05:14:16;;;;;;;4.03;0.80;;;10.70;88.30;;;;;;5052982;28;20473;-73
2021/05/17 05:16:41;;;;;;;10.03;1.20;;;10.70;88.00;;;;;;5034084;28;20648;-73
2021/05/17 05:19:07;;;;;;;1.10;0.80;;;10.70;87.40;;;;;;5030721;28;20420;-74
2021/05/17 05:21:34;;;;;;;1.27;0.90;;;10.80;87.10;;;;;;5031937;28;20177;-75
2021/05/17 05:24:00;;;;;;;1.43;0.90;;;10.80;86.90;;;;;;5032490;28;20221;-74
2021/05/17 05:34:14;;;;;;;1.00;0.60;;;11.00;84.40;;;;;;5032851;28;20502;-73
2021/05/17 05:36:40;;;;;;;2.90;0.80;;;10.90;84.30;;;;;;5045750;28;20451;-75
2021/05/17 05:39:06;;;;;;;2.13;0.83;;;11.00;84.10;;;;;;5032901;28;20241;-74
2021/05/17 05:41:31;;;;;;;0.80;0.70;;;11.10;83.60;;;;;;5046265;28;20416;-73
2021/05/17 05:43:57;;;;;;;1.03;0.60;;;11.10;83.10;;;;;;5031818;28;21120;-75
2021/05/17 05:46:23;;;;;;;1.37;0.73;;;11.10;82.80;;;;;;5024427;28;20490;-73
2021/05/17 05:48:49;;;;;;;1.50;0.70;;;11.20;82.40;;;;;;5013561;28;20189;-74
2021/05/17 05:51:16;;;;;;;1.23;0.70;;;11.30;81.90;;;;;;5042632;28;20196;-74
2021/05/17 05:53:43;;;;;;;1.43;0.90;;;11.20;82.10;;;;;;5043618;28;20386;-73
2021/05/17 05:56:09;;;;;;;0.90;0.80;;;11.20;82.40;;;;;;5022470;28;20425;-74
2021/05/17 05:58:35;;;;;;;1.70;0.90;;;11.30;82.70;;;;;;5012534;28;20790;-74
2021/05/17 06:01:00;;;;;;;1.33;0.80;;;11.40;81.90;;;;;;5031410;28;20207;-73
2021/05/17 06:03:26;;;;;;;2.40;0.67;;;11.40;81.80;;;;;;5031173;28;20533;-74
2021/05/17 06:05:52;;;;;;;2.37;0.80;;;11.40;82.20;;;;;;5031605;28;20842;-73
2021/05/17 06:08:18;;;;;;;0.77;0.60;;;11.40;81.80;;;;;;5044523;28;20203;-74
2021/05/17 06:10:44;;;;;;;1.63;0.80;;;11.40;81.70;;;;;;5037513;28;20196;-74
2021/05/17 06:13:10;;;;;;;1.20;0.87;;;11.50;81.40;;;;;;5050805;28;20216;-72
2021/05/17 06:15:39;;;;;;;2.40;0.77;;;11.50;81.50;;;;;;5043005;28;20443;-73
2021/05/17 06:18:06;;;;;;;1.30;0.80;;;11.40;81.20;;;;;;5046408;28;20419;-75
2021/05/17 06:20:32;;;;;;;5.30;0.87;;;11.50;80.90;;;;;;5050967;28;20411;-76
2021/05/17 06:22:58;;;;;;;1.27;1.00;;;11.60;81.10;;;;;;5053564;28;20529;-77
2021/05/17 06:25:24;;;;;;;0.93;0.70;;;11.70;80.80;;;;;;5044199;28;21261;-75
2021/05/17 06:27:50;;;;;;;1.13;0.70;;;11.70;80.60;;;;;;5031443;28;20446;-76
2021/05/17 06:30:17;;;;;;;2.13;0.80;;;11.80;79.60;;;;;;5030849;28;20408;-76
2021/05/17 06:32:45;;;;;;;1.97;0.80;;;11.80;80.50;;;;;;5032045;28;21083;-77
2021/05/17 06:35:13;;;;;;;5.00;0.70;;;12.00;80.00;;;;;;5042771;28;20447;-77
2021/05/17 06:37:38;;;;;;;1.60;0.80;;;12.00;78.70;;;;;;5031443;28;20525;-75
2021/05/17 06:40:06;;;;;;;2.10;1.03;;;12.10;78.40;;;;;;5041144;28;20454;-75
2021/05/17 06:42:32;;;;;;;1.83;0.90;;;12.10;78.70;;;;;;5031295;28;20658;-75
2021/05/17 06:44:58;;;;;;;2.50;0.80;;;12.20;78.40;;;;;;5039511;28;20442;-77
2021/05/17 06:47:24;;;;;;;1.03;0.70;;;12.10;78.70;;;;;;5048230;28;20250;-77
2021/05/17 06:49:49;;;;;;;1.03;0.60;;;12.30;78.10;;;;;;5025789;28;20956;-76
2021/05/17 06:52:17;;;;;;;2.00;0.77;;;12.10;78.00;;;;;;5036558;28;20484;-76
2021/05/17 06:54:43;;;;;;;5.50;0.90;;;12.10;79.00;;;;;;5017314;28;20358;-75
2021/05/17 06:59:47;;;;;;;1.40;0.80;;;12.20;79.50;;;;;;5042654;28;20452;-75
2021/05/17 07:02:21;;;;;;;2.30;1.13;;;12.30;78.90;;;;;;5033872;28;20769;-78
2021/05/17 07:04:47;;;;;;;1.20;0.70;;;12.50;78.60;;;;;;5030807;28;20436;-75
2021/05/17 07:07:21;;;;;;;2.27;0.90;;;12.30;77.70;;;;;;5047275;28;20537;-74
2021/05/17 07:12:32;;;;;;;0.90;0.70;;;12.10;80.90;;;;;;5037328;28;20561;-75
2021/05/17 07:15:01;;;;;;;1.20;0.80;;;11.80;82.40;;;;;;5047309;28;20558;-78
2021/05/17 07:17:27;;;;;;;1.10;0.90;;;11.80;83.30;;;;;;5037386;28;20173;-73
2021/05/17 07:19:52;;;;;;;1.83;0.77;;;11.80;83.60;;;;;;5041180;28;20824;-76
2021/05/17 07:25:03;;;;;;;1.63;0.90;;;11.90;83.10;;;;;;5033379;28;20267;-74
2021/05/17 07:27:29;;;;;;;1.10;0.80;;;11.80;83.40;;;;;;5037080;28;20444;-76
2021/05/17 07:29:55;;;;;;;2.33;0.87;;;11.80;84.00;;;;;;5037354;28;20860;-74
2021/05/17 07:32:20;;;;;;;1.50;0.80;;;11.80;83.70;;;;;;5023789;28;20201;-74
2021/05/17 07:34:46;;;;;;;1.33;0.87;;;11.80;82.70;;;;;;5041458;28;20205;-75
2021/05/17 07:37:13;;;;;;;2.30;0.80;;;11.80;81.90;;;;;;5041578;28;20261;-74
2021/05/17 07:39:39;;;;;;;4.80;0.90;;;11.80;81.90;;;;;;5035489;28;20340;-76
2021/05/17 07:42:05;;;;;;;1.57;0.90;;;11.80;81.20;;;;;;5039035;28;21056;-75
2021/05/17 07:44:31;;;;;;;4.63;1.20;;;11.90;80.20;;;;;;5033689;28;20213;-75
2021/05/17 07:46:59;;;;;;;1.40;0.90;;;12.10;79.70;;;;;;5038658;28;21080;-75
2021/05/17 07:49:57;;;;;;;2.50;0.73;;;12.20;78.90;;;;;;5046954;28;20427;-74
2021/05/17 07:52:16;;;;;;;1.17;0.70;;;12.30;78.30;;;;;;5037714;28;20485;-75
2021/05/17 07:54:42;;;;;;;2.23;0.90;;;12.50;76.80;;;;;;5040140;28;20558;-76
2021/05/17 07:57:08;;;;;;;5.70;1.00;;;12.70;74.00;;;;;;5031233;28;20821;-74
2021/05/17 07:59:34;;;;;;;2.90;0.80;;;12.70;73.20;;;;;;5041697;28;20183;-75
2021/05/17 08:02:00;;;;;;;2.27;0.73;;;12.60;72.90;;;;;;5030555;28;20178;-73
2021/05/17 08:04:26;;;;;;;1.43;0.80;;;12.70;73.30;;;;;;5043512;28;20459;-74
2021/05/17 08:06:52;;;;;;;1.73;0.93;;;12.80;72.70;;;;;;5044382;28;20811;-74
2021/05/17 08:09:18;;;;;;;1.90;0.80;;;12.90;72.40;;;;;;5040993;28;20184;-75
2021/05/17 08:11:45;;;;;;;1.60;0.70;;;12.90;72.30;;;;;;5057632;28;20415;-74
2021/05/17 08:14:12;;;;;;;1.73;0.60;;;13.10;72.10;;;;;;5039318;28;20471;-75
2021/05/17 08:16:38;;;;;;;1.73;0.80;;;13.10;72.30;;;;;;5036059;28;20412;-73
2021/05/17 08:19:04;;;;;;;1.73;0.53;;;13.10;72.00;;;;;;5044396;28;20427;-74
2021/05/17 08:21:30;;;;;;;1.87;0.90;;;13.20;72.00;;;;;;5033546;28;20934;-75
2021/05/17 08:23:57;;;;;;;4.27;1.00;;;13.20;71.70;;;;;;5035612;28;20436;-74
2021/05/17 08:26:24;;;;;;;2.40;1.57;;;13.30;72.00;;;;;;5036664;28;20450;-77
2021/05/17 08:28:50;;;;;;;1.93;0.70;;;13.50;71.10;;;;;;5051575;28;20426;-75
2021/05/17 08:31:18;;;;;;;1.07;0.70;;;13.50;69.70;;;;;;5049917;28;20419;-74
2021/05/17 08:33:45;;;;;;;5.10;1.10;;;13.50;69.50;;;;;;5050948;28;20553;-76
2021/05/17 08:36:11;;;;;;;2.97;1.03;;;13.70;69.40;;;;;;5033623;28;20408;-74
2021/05/17 08:38:38;;;;;;;1.57;0.87;;;13.80;68.60;;;;;;5032118;28;20975;-75
2021/05/17 08:41:04;;;;;;;3.47;1.00;;;13.90;67.60;;;;;;5053016;28;20407;-76
2021/05/17 08:43:30;;;;;;;2.30;0.77;;;13.60;69.50;;;;;;5040023;28;20416;-75
2021/05/17 08:45:57;;;;;;;2.30;0.73;;;13.60;69.90;;;;;;5052627;28;20431;-76
2021/05/17 08:48:23;;;;;;;2.00;0.80;;;13.80;69.10;;;;;;5043216;28;20427;-73
2021/05/17 08:50:49;;;;;;;2.00;0.90;;;13.70;68.60;;;;;;5046373;28;20439;-75
2021/05/17 08:53:15;;;;;;;1.73;0.70;;;13.70;67.90;;;;;;5039515;28;20880;-74
2021/05/17 08:55:41;;;;;;;2.77;1.00;;;13.70;67.70;;;;;;5034258;28;20515;-76
2021/05/17 08:58:17;;;;;;;1.30;0.70;;;13.90;67.70;;;;;;5038684;28;20424;-76
2021/05/17 09:00:43;;;;;;;5.13;0.90;;;13.80;67.20;;;;;;5041582;28;20833;-74
2021/05/17 09:03:09;;;;;;;5.93;1.27;;;13.60;68.30;;;;;;5030971;28;20416;-74
2021/05/17 09:05:38;;;;;;;10.80;1.27;;;13.60;69.40;;;;;;5034154;28;20275;-77
2021/05/17 09:08:05;;;;;;;1.83;0.90;;;13.60;69.40;;;;;;5051800;28;20260;-75
2021/05/17 09:10:39;;;;;;;10.07;1.10;;;13.70;69.90;;;;;;5031986;28;20415;-75
2021/05/17 09:13:09;;;;;;;2.10;1.17;;;13.70;69.90;;;;;;5032158;28;20420;-75
2021/05/17 09:15:42;;;;;;;2.50;0.80;;;14.00;69.50;;;;;;5039155;28;20479;-75
2021/05/17 09:18:16;;;;;;;3.20;0.80;;;13.90;69.40;;;;;;5041957;28;20881;-73
2021/05/17 09:20:43;;;;;;;1.57;0.80;;;14.10;69.70;;;;;;5037051;28;20506;-76
2021/05/17 09:23:19;;;;;;;3.00;1.00;;;14.10;69.20;;;;;;5038927;28;20423;-75
2021/05/17 09:26:03;;;;;;;3.13;0.77;;;14.10;70.20;;;;;;5013376;28;21012;-74
2021/05/17 09:28:44;;;;;;;2.53;0.80;;;14.00;71.80;;;;;;5045460;28;20548;-75
2021/05/17 09:31:15;;;;;;;2.70;0.93;;;13.90;73.50;;;;;;5031841;28;20439;-75
2021/05/17 09:34:02;;;;;;;1.53;0.80;;;14.00;71.30;;;;;;5030624;28;20470;-78
2021/05/17 09:36:33;;;;;;;3.27;0.80;;;14.10;70.20;;;;;;5038196;28;20419;-79
2021/05/17 09:39:02;;;;;;;3.73;0.80;;;14.10;69.80;;;;;;5038714;28;20871;-74
2021/05/17 09:41:41;;;;;;;2.80;1.20;;;14.10;69.20;;;;;;5025010;28;20423;-79
2021/05/17 09:44:09;;;;;;;2.37;0.90;;;14.20;67.50;;;;;;5038364;28;20435;-76
2021/05/17 09:46:54;;;;;;;1.63;0.63;;;14.30;68.20;;;;;;5051948;28;20419;-76
2021/05/17 09:49:33;;;;;;;1.20;0.70;;;14.50;66.60;;;;;;5048443;28;20430;-75
2021/05/17 09:52:14;;;;;;;1.60;0.70;;;14.30;67.20;;;;;;5038473;28;20419;-76
2021/05/17 09:54:51;;;;;;;1.63;0.90;;;14.40;68.60;;;;;;5028002;28;20557;-73
2021/05/17 09:57:38;;;;;;;2.30;0.90;;;14.30;68.90;;;;;;5034522;28;20938;-75
2021/05/17 10:00:20;;;;;;;2.63;0.93;;;14.40;70.50;;;;;;5031609;28;20509;-74
2021/05/17 10:02:52;;;;;;;0.80;0.70;;;14.30;71.00;;;;;;5020663;28;20419;-75
2021/05/17 10:05:33;;;;;;;1.40;0.77;;;14.10;69.10;;;;;;5030846;28;20486;-76
2021/05/17 10:08:04;;;;;;;1.93;1.10;;;14.10;68.90;;;;;;5031718;28;20508;-78
2021/05/17 10:10:31;;;;;;;1.10;0.60;;;14.10;69.90;;;;;;5036560;28;20479;-75
2021/05/17 10:12:59;;;;;;;0.90;0.60;;;14.30;68.00;;;;;;5053045;28;20438;-76
2021/05/17 10:15:30;;;;;;;1.97;1.43;;;14.20;68.20;;;;;;5033242;28;20443;-76
2021/05/17 10:18:00;;;;;;;2.03;0.80;;;14.30;68.60;;;;;;5038776;28;20895;-75
2021/05/17 10:20:27;;;;;;;1.90;0.83;;;14.50;67.70;;;;;;5031967;28;20428;-74
2021/05/17 10:22:56;;;;;;;2.30;0.87;;;14.50;68.00;;;;;;5039863;28;20423;-78
2021/05/17 10:25:29;;;;;;;3.00;0.80;;;14.70;66.70;;;;;;5047446;28;20445;-76
2021/05/17 10:28:05;;;;;;;1.13;0.60;;;14.70;66.00;;;;;;5052019;28;20484;-73
2021/05/17 10:30:33;;;;;;;2.27;0.90;;;14.60;66.70;;;;;;5037066;28;20430;-74
2021/05/17 10:33:01;;;;;;;3.30;0.83;;;14.70;67.00;;;;;;5037208;28;20419;-74
2021/05/17 10:35:35;;;;;;;1.03;0.70;;;14.70;66.40;;;;;;5037160;28;20447;-75
2021/05/17 10:38:42;;;;;;;2.70;0.70;;;14.70;67.70;;;;;;5044244;28;20777;-75
2021/05/17 10:41:17;;;;;;;3.13;0.80;;;14.30;71.10;;;;;;5011843;28;21009;-76
2021/05/17 10:46:42;;;;;;;4.17;1.10;;;12.30;87.10;;;;;;5050172;28;20426;-79
2021/05/17 10:49:18;;;;;;;4.17;1.00;;;11.90;87.80;;;;;;5052250;28;20432;-78
2021/05/17 10:51:45;;;;;;;5.27;1.40;;;11.70;91.70;;;;;;5046860;28;20485;-76
2021/05/17 10:54:25;;;;;;;3.60;1.10;;;11.60;92.80;;;;;;5043199;28;20852;-79
2021/05/17 11:02:22;;;;;;;3.30;1.10;;;12.30;94.70;;;;;;5031780;28;20462;-78
2021/05/17 11:04:48;;;;;;;2.63;1.20;;;13.00;89.00;;;;;;5046552;28;20446;-75
2021/05/17 11:07:20;;;;;;;1.83;0.90;;;13.50;89.00;;;;;;5048249;28;20433;-76
2021/05/17 11:10:09;;;;;;;2.93;0.97;;;13.90;83.00;;;;;;5024942;28;20192;-74
2021/05/17 11:12:41;;;;;;;1.80;1.10;;;14.30;80.30;;;;;;5045984;28;20458;-79
2021/05/17 11:15:14;;;;;;;2.80;1.23;;;14.60;79.00;;;;;;5050114;28;20474;-78
2021/05/17 11:18:07;;;;;;;2.93;0.80;;;14.80;78.70;;;;;;5045344;28;20424;-75
2021/05/17 11:23:13;;;;;;;1.90;0.90;;;14.80;75.90;;;;;;5046713;28;20450;-74
2021/05/17 11:26:00;;;;;;;2.50;0.97;;;14.60;77.10;;;;;;5034723;28;20685;-74
2021/05/17 11:28:38;;;;;;;6.90;1.10;;;14.30;77.30;;;;;;5050576;28;20418;-76
2021/05/17 11:31:34;;;;;;;2.90;1.13;;;14.00;80.30;;;;;;5021411;28;20428;-77
2021/05/17 11:34:03;;;;;;;1.90;0.93;;;13.80;79.60;;;;;;5018025;28;20488;-77
2021/05/17 11:36:39;;;;;;;2.40;1.20;;;13.40;82.10;;;;;;5030813;28;20474;-76
2021/05/17 11:39:09;;;;;;;2.80;1.00;;;13.30;82.80;;;;;;5029120;28;20527;-75
2021/05/17 11:41:55;;;;;;;3.33;1.20;;;13.30;83.80;;;;;;5029099;28;20980;-76
2021/05/17 11:45:11;;;;;;;3.17;0.90;;;13.50;83.80;;;;;;5046431;28;20933;-76
2021/05/17 11:47:30;;;;;;;4.03;1.47;;;13.60;82.70;;;;;;5034397;28;20435;-76
2021/05/17 11:49:57;;;;;;;3.20;1.20;;;13.40;85.20;;;;;;5035062;28;20432;-76
2021/05/17 11:52:26;;;;;;;4.10;1.10;;;13.20;87.80;;;;;;5034069;28;20499;-76
2021/05/17 11:54:56;;;;;;;1.30;1.00;;;13.10;88.70;;;;;;5045288;28;20498;-77
2021/05/17 11:57:32;;;;;;;1.37;0.80;;;13.10;89.50;;;;;;5043767;28;20419;-77
2021/05/17 12:00:05;;;;;;;2.77;1.00;;;13.50;89.90;;;;;;5037361;28;20889;-78
2021/05/17 12:02:31;;;;;;;2.67;1.40;;;14.00;87.40;;;;;;5038096;28;20494;-75
2021/05/17 12:04:57;;;;;;;1.30;0.80;;;14.50;85.30;;;;;;5040544;28;20447;-77
2021/05/17 12:07:23;;;;;;;1.07;0.70;;;15.10;77.10;;;;;;5052868;28;20181;-78
2021/05/17 12:09:51;;;;;;;2.27;0.90;;;14.90;73.60;;;;;;5040767;28;20457;-77
2021/05/17 12:12:17;;;;;;;0.90;0.50;;;14.50;74.80;;;;;;5041276;28;20216;-73
2021/05/17 12:14:47;;;;;;;1.47;0.60;;;14.50;72.10;;;;;;5046378;28;21075;-75
2021/05/17 12:17:17;;;;;;;0.80;0.60;;;14.30;72.90;;;;;;5042330;28;20507;-79
2021/05/17 12:19:58;;;;;;;1.57;0.57;;;14.40;72.90;;;;;;5061085;28;20483;-75
2021/05/17 12:22:30;;;;;;;0.70;0.50;;;14.60;69.40;;;;;;5062799;28;20408;-75
2021/05/17 12:24:58;;;;;;;0.80;0.60;;;14.80;68.50;;;;;;5052553;28;20464;-76
2021/05/17 12:27:24;;;;;;;0.93;0.60;;;14.90;66.10;;;;;;5033891;28;20794;-74
2021/05/17 12:30:17;;;;;;;1.97;0.60;;;15.10;66.40;;;;;;5046066;28;20423;-76
2021/05/17 12:32:51;;;;;;;1.60;0.70;;;15.40;65.60;;;;;;5012728;28;20560;-75
2021/05/17 12:35:20;;;;;;;0.83;0.50;;;15.70;63.70;;;;;;5031838;28;20475;-75
2021/05/17 12:37:52;;;;;;;1.33;0.60;;;15.90;61.60;;;;;;5031776;28;20419;-77
2021/05/17 12:40:29;;;;;;;0.83;0.50;;;15.90;60.70;;;;;;5037594;28;20434;-76
2021/05/17 12:43:08;;;;;;;0.80;0.60;;;15.90;60.40;;;;;;5038879;28;20420;-76
2021/05/17 12:45:47;;;;;;;1.03;0.57;;;16.00;61.20;;;;;;5032577;28;20517;-75
2021/05/17 12:48:18;;;;;;;1.37;0.50;;;16.20;60.60;;;;;;5038489;28;20423;-78
2021/05/17 12:50:45;;;;;;;0.70;0.50;;;16.00;58.80;;;;;;5052669;28;20423;-76
2021/05/17 12:53:13;;;;;;;0.60;0.50;;;15.70;59.50;;;;;;5040196;28;20427;-76
2021/05/17 12:55:51;;;;;;;2.80;0.60;;;15.90;61.50;;;;;;5050977;28;20449;-77
2021/05/17 12:58:40;;;;;;;1.73;0.80;;;16.40;58.40;;;;;;5027050;28;21058;-76
2021/05/17 13:01:20;;;;;;;2.10;0.70;;;16.00;59.10;;;;;;5035577;28;20608;-75
2021/05/17 13:04:22;;;;;;;1.50;0.80;;;16.20;58.80;;;;;;5031879;28;20427;-75
2021/05/17 13:06:48;;;;;;;1.13;0.60;;;15.90;59.50;;;;;;5035264;28;20414;-76
2021/05/17 13:09:20;;;;;;;1.53;0.60;;;16.20;59.20;;;;;;5039392;28;20886;-76
2021/05/17 13:11:54;;;;;;;1.33;0.70;;;16.10;59.10;;;;;;5040945;28;20182;-76
2021/05/17 13:14:22;;;;;;;1.27;0.60;;;16.20;58.40;;;;;;5045979;28;20472;-76
2021/05/17 13:16:48;;;;;;;1.43;1.20;;;16.60;58.00;;;;;;5046642;28;20421;-74
2021/05/17 13:19:40;;;;;;;4.33;0.90;;;17.00;56.40;;;;;;5051359;28;20430;-76
2021/05/17 13:33:42;;;;;;;1.27;0.70;;;17.20;54.50;;;;;;5027505;28;20423;-77
2021/05/17 13:36:13;;;;;;;1.10;0.70;;;17.00;53.80;;;;;;5050276;28;20421;-76
2021/05/17 13:38:46;;;;;;;2.27;0.63;;;16.80;55.00;;;;;;5019171;28;20424;-75
2021/05/17 13:41:12;;;;;;;1.20;0.60;;;16.50;56.00;;;;;;5031112;28;20501;-74
2021/05/17 13:43:38;;;;;;;3.37;0.60;;;16.60;56.80;;;;;;5045077;28;20425;-76